createdAt,value
2023-03-21T00:02:02.722Z,29.60
2023-03-21T00:04:44.581Z,35.10
2023-03-21T00:07:20.346Z,30.80
2023-03-21T00:09:48.891Z,30.10
2023-03-21T00:12:17.460Z,26.90
2023-03-21T00:14:46.543Z,27.40
2023-03-21T00:17:16.226Z,26.60
2023-03-21T00:19:46.703Z,28.60
2023-03-21T00:22:16.225Z,24.50
2023-03-21T00:24:45.644Z,27.60
2023-03-21T00:27:39.755Z,23.20
2023-03-21T00:30:05.203Z,27.80
2023-03-21T00:32:37.508Z,25.50
2023-03-21T00:35:47.981Z,35.30
2023-03-21T00:37:58.111Z,32.50
2023-03-21T00:40:33.045Z,25.20
2023-03-21T00:43:03.992Z,26.20
2023-03-21T00:45:35.695Z,25.40
2023-03-21T00:48:05.872Z,27.30
2023-03-21T00:50:34.993Z,28.60
2023-03-21T00:53:04.592Z,27.00
2023-03-21T00:55:33.492Z,25.60
2023-03-21T00:58:02.724Z,23.70
2023-03-21T01:00:33.636Z,26.10
2023-03-21T01:03:17.620Z,25.30
2023-03-21T01:06:07.724Z,20.50
2023-03-21T01:08:54.818Z,26.60
2023-03-21T01:11:27.128Z,25.80
2023-03-21T01:14:07.277Z,24.70
2023-03-21T01:16:40.069Z,21.20
2023-03-21T01:19:22.110Z,23.50
2023-03-21T01:21:54.011Z,23.60
2023-03-21T01:24:24.010Z,24.40
2023-03-21T01:26:52.607Z,40.80
2023-03-21T01:29:22.212Z,66.20
2023-03-21T01:31:51.045Z,34.90
2023-03-21T01:34:19.704Z,33.00
2023-03-21T01:36:49.303Z,27.30
2023-03-21T01:39:21.877Z,32.30
2023-03-21T01:41:52.274Z,24.30
2023-03-21T01:44:24.017Z,23.70
2023-03-21T01:47:09.196Z,25.90
2023-03-21T01:49:46.573Z,26.70
2023-03-21T01:52:38.892Z,27.40
2023-03-21T01:55:14.282Z,26.20
2023-03-21T01:58:09.548Z,32.30
2023-03-21T02:01:03.058Z,29.70
2023-03-21T02:03:51.069Z,26.60
2023-03-21T02:06:38.137Z,24.10
2023-03-21T02:09:17.108Z,25.40
2023-03-21T02:11:47.341Z,28.00
2023-03-21T02:14:28.418Z,28.20
2023-03-21T02:17:30.092Z,25.20
2023-03-21T02:20:33.667Z,25.70
2023-03-21T02:23:24.695Z,25.20
2023-03-21T02:26:36.148Z,28.10
2023-03-21T02:29:12.707Z,25.40
2023-03-21T02:32:18.194Z,23.60
2023-03-21T02:37:38.302Z,26.00
2023-03-21T02:40:18.578Z,27.00
2023-03-21T02:43:01.424Z,28.00
2023-03-21T02:46:04.548Z,30.60
2023-03-21T02:48:50.245Z,27.60
2023-03-21T02:51:23.945Z,27.40
2023-03-21T02:54:26.117Z,30.00
2023-03-21T02:56:50.339Z,27.90
2023-03-21T02:59:21.828Z,28.50
2023-03-21T03:01:53.201Z,25.10
2023-03-21T03:04:25.463Z,26.50
2023-03-21T03:07:13.262Z,28.90
2023-03-21T03:09:52.350Z,32.80
2023-03-21T03:12:26.842Z,27.20
2023-03-21T03:15:04.521Z,31.20
2023-03-21T03:17:48.138Z,31.30
2023-03-21T03:20:29.418Z,31.50
2023-03-21T03:23:19.607Z,27.40
2023-03-21T03:26:04.604Z,26.80
2023-03-21T03:28:41.946Z,30.40
2023-03-21T03:31:22.391Z,30.90
2023-03-21T03:33:58.127Z,30.40
2023-03-21T03:36:37.713Z,31.60
2023-03-21T03:39:12.134Z,30.90
2023-03-21T03:42:15.387Z,29.90
2023-03-21T03:44:57.811Z,35.70
2023-03-21T03:47:56.410Z,33.20
2023-03-21T03:50:29.609Z,32.00
2023-03-21T03:53:16.201Z,30.90
2023-03-21T03:55:48.588Z,33.70
2023-03-21T03:58:23.910Z,33.50
2023-03-21T04:00:55.502Z,37.70
2023-03-21T04:03:25.424Z,35.20
2023-03-21T04:05:54.306Z,27.50
2023-03-21T04:08:23.635Z,36.20
2023-03-21T04:10:55.534Z,33.70
2023-03-21T04:13:24.644Z,31.30
2023-03-21T04:16:14.992Z,37.30
2023-03-21T04:18:44.098Z,35.50
2023-03-21T04:21:13.783Z,35.40
2023-03-21T04:23:43.257Z,34.60
2023-03-21T04:26:11.855Z,32.60
2023-03-21T04:28:45.915Z,35.40
2023-03-21T04:31:36.361Z,35.70
2023-03-21T04:34:12.936Z,32.40
2023-03-21T04:36:49.748Z,35.00
2023-03-21T04:39:18.886Z,34.70
2023-03-21T04:41:50.194Z,33.30
2023-03-21T04:44:18.823Z,40.30
2023-03-21T04:46:48.672Z,43.80
2023-03-21T04:49:19.269Z,33.40
2023-03-21T04:51:47.902Z,40.50
2023-03-21T04:54:21.678Z,34.40
2023-03-21T04:59:21.795Z,35.50
2023-03-21T05:01:51.561Z,25.70
2023-03-21T05:04:20.366Z,36.00
2023-03-21T05:06:49.062Z,42.20
2023-03-21T05:09:18.434Z,40.20
2023-03-21T05:11:47.007Z,37.90
2023-03-21T05:14:20.830Z,41.30
2023-03-21T05:16:53.886Z,41.30
2023-03-21T05:19:35.620Z,39.00
2023-03-21T05:22:09.030Z,42.70
2023-03-21T05:24:42.248Z,38.60
2023-03-21T05:27:36.164Z,37.50
2023-03-21T05:30:17.657Z,39.20
2023-03-21T05:32:48.262Z,41.20
2023-03-21T05:35:17.435Z,39.20
2023-03-21T05:37:45.986Z,41.60
2023-03-21T05:40:15.373Z,43.40
2023-03-21T05:42:47.377Z,39.70
2023-03-21T05:45:23.271Z,42.30
2023-03-21T05:47:52.665Z,41.50
2023-03-21T05:50:23.232Z,44.70
2023-03-21T05:53:04.473Z,38.40
2023-03-21T05:55:35.052Z,46.30
2023-03-21T05:58:05.941Z,40.60
2023-03-21T06:00:34.684Z,45.70
2023-03-21T06:03:19.084Z,47.60
2023-03-21T06:06:23.390Z,39.20
2023-03-21T06:08:57.017Z,43.20
2023-03-21T06:11:29.839Z,42.40
2023-03-21T06:14:17.359Z,43.00
2023-03-21T06:19:16.083Z,41.80
2023-03-21T06:22:06.747Z,44.90
2023-03-21T06:24:36.612Z,42.60
2023-03-21T06:27:05.946Z,43.00
2023-03-21T06:29:47.040Z,47.00
2023-03-21T06:34:45.586Z,43.00
2023-03-21T06:37:17.080Z,43.30
2023-03-21T06:39:47.267Z,36.20
2023-03-21T10:16:16.117Z,47.30
2023-03-21T10:18:45.140Z,56.40
2023-03-21T10:21:45.891Z,56.10
2023-03-21T10:24:14.339Z,46.30
2023-03-21T10:26:44.547Z,56.40
2023-03-21T10:29:16.908Z,53.00
2023-03-21T10:31:48.010Z,46.60
2023-03-21T10:34:22.672Z,49.20
2023-03-21T10:36:51.827Z,44.50
2023-03-21T10:39:37.365Z,47.30
2023-03-21T10:42:07.063Z,50.20
2023-03-21T10:44:36.673Z,52.90
2023-03-21T10:47:10.166Z,49.60
2023-03-21T10:50:05.842Z,55.00
2023-03-21T10:52:32.779Z,44.30
2023-03-21T10:55:21.767Z,51.50
2023-03-21T10:57:56.210Z,50.50
2023-03-21T11:00:30.460Z,59.80
2023-03-21T11:03:01.120Z,46.60
2023-03-21T11:05:40.166Z,44.20
2023-03-21T11:08:16.686Z,48.10
2023-03-21T11:11:04.549Z,45.10
2023-03-21T11:13:42.873Z,42.90
2023-03-21T11:16:41.480Z,52.40
2023-03-21T11:19:19.926Z,77.00
2023-03-21T11:21:48.894Z,51.80
2023-03-21T11:24:19.201Z,48.60
2023-03-21T11:29:31.363Z,51.50
2023-03-21T11:32:12.166Z,50.10
2023-03-21T11:34:51.004Z,46.40
2023-03-21T11:37:32.756Z,55.30
2023-03-21T11:40:26.005Z,44.20
2023-03-21T11:43:25.415Z,52.50
2023-03-21T11:46:06.408Z,46.00
2023-03-21T11:48:49.274Z,48.50
2023-03-21T11:51:18.415Z,53.10
2023-03-21T11:53:58.258Z,50.80
2023-03-21T11:59:13.908Z,49.00
2023-03-21T12:01:45.823Z,52.10
2023-03-21T12:04:19.093Z,57.20
2023-03-21T12:06:55.466Z,51.40
2023-03-21T12:09:39.103Z,54.60
2023-03-21T12:12:48.244Z,56.00
2023-03-21T12:15:42.166Z,54.30
2023-03-21T12:18:36.315Z,58.80
2023-03-21T12:21:20.644Z,57.70
2023-03-21T12:24:08.288Z,53.30
2023-03-21T12:26:49.081Z,50.00
2023-03-21T12:29:48.096Z,52.00
2023-03-21T12:32:40.993Z,51.00
2023-03-21T12:35:32.970Z,51.60
2023-03-21T12:38:08.569Z,49.60
2023-03-21T12:40:41.203Z,51.50
2023-03-21T12:43:28.655Z,50.60
2023-03-21T12:46:03.997Z,51.30
2023-03-21T12:48:42.034Z,56.50
2023-03-21T12:51:16.915Z,58.70
2023-03-21T12:54:02.323Z,52.40
2023-03-21T12:56:59.927Z,68.00
2023-03-21T13:00:09.429Z,58.10
2023-03-21T13:02:43.855Z,56.50
2023-03-21T13:05:23.110Z,50.50
2023-03-21T13:08:07.064Z,60.90
2023-03-21T13:10:36.830Z,50.10
2023-03-21T13:13:32.024Z,61.30
2023-03-21T13:16:25.937Z,51.80
2023-03-21T13:19:03.025Z,48.80
2023-03-21T13:21:47.059Z,50.20
2023-03-21T13:24:44.164Z,51.40
2023-03-21T13:27:29.509Z,49.20
2023-03-21T13:30:02.695Z,50.80
2023-03-21T13:32:41.359Z,54.50
2023-03-21T13:35:27.924Z,59.00
2023-03-21T13:38:05.449Z,61.30
2023-03-21T13:40:52.662Z,55.30
2023-03-21T13:43:44.273Z,58.60
2023-03-21T13:46:54.050Z,58.80
2023-03-21T13:49:27.955Z,60.50
2023-03-21T13:51:59.029Z,60.30
2023-03-21T13:54:45.579Z,67.50
2023-03-21T13:57:33.578Z,61.90
2023-03-21T14:00:27.858Z,58.20
2023-03-21T14:02:59.918Z,73.80
2023-03-21T14:05:29.965Z,72.90
2023-03-21T14:08:12.728Z,60.10
2023-03-21T14:10:47.622Z,70.50
2023-03-21T14:13:23.160Z,62.70
2023-03-21T14:15:56.703Z,70.90
2023-03-21T14:18:51.646Z,59.30
2023-03-21T14:21:25.600Z,70.70
2023-03-21T14:24:18.435Z,60.20
2023-03-21T14:26:54.164Z,56.80
2023-03-21T14:29:33.591Z,55.20
2023-03-21T14:32:04.742Z,57.00
2023-03-21T14:34:36.045Z,56.70
2023-03-21T14:37:08.635Z,84.30
2023-03-21T14:39:37.762Z,57.00
2023-03-21T14:42:10.195Z,61.10
2023-03-21T14:44:54.060Z,73.70
2023-03-21T14:47:29.861Z,63.50
2023-03-21T14:50:01.379Z,65.20
2023-03-21T14:52:33.692Z,64.90
2023-03-21T14:55:12.164Z,76.80
2023-03-21T14:57:41.340Z,74.50
2023-03-21T15:00:19.581Z,74.60
2023-03-21T15:02:48.596Z,83.00
2023-03-21T15:05:33.648Z,70.60
2023-03-21T15:08:16.806Z,114.20
2023-03-21T15:11:07.204Z,85.60
2023-03-21T15:13:50.844Z,85.40
2023-03-21T15:16:20.763Z,76.60
2023-03-21T15:18:50.980Z,64.40
2023-03-21T15:21:30.696Z,86.00
2023-03-21T15:24:32.010Z,71.80
2023-03-21T15:27:05.897Z,64.20
2023-03-21T15:29:37.687Z,62.70
2023-03-21T15:32:17.100Z,62.50
2023-03-21T15:34:46.883Z,58.70
2023-03-21T15:37:24.510Z,70.30
2023-03-21T15:39:54.854Z,61.00
2023-03-21T15:42:27.780Z,63.30
2023-03-21T15:45:01.536Z,63.80
2023-03-21T15:47:51.844Z,65.80
2023-03-21T15:50:34.647Z,68.00
2023-03-21T15:53:08.345Z,75.20
2023-03-21T15:55:48.503Z,55.40
2023-03-21T15:58:20.966Z,64.70
2023-03-21T16:00:55.816Z,70.80
2023-03-21T16:04:06.472Z,66.60
2023-03-21T16:06:37.622Z,61.30
2023-03-21T16:09:09.600Z,62.90
2023-03-21T16:11:53.259Z,74.40
2023-03-21T16:14:23.225Z,81.40
2023-03-21T16:19:21.784Z,96.10
2023-03-21T16:21:54.321Z,99.00
2023-03-21T16:24:25.417Z,79.10
2023-03-21T16:26:55.493Z,84.70
2023-03-21T16:29:24.324Z,83.90
2023-03-21T16:31:53.561Z,94.10
2023-03-21T16:34:22.584Z,87.30
2023-03-21T16:36:51.084Z,78.20
2023-03-21T16:39:22.706Z,77.10
2023-03-21T16:41:52.023Z,73.40
2023-03-21T16:44:21.340Z,78.20
2023-03-21T16:46:49.944Z,92.40
2023-03-21T16:49:24.781Z,98.40
2023-03-21T16:51:56.502Z,99.00
2023-03-21T16:54:25.112Z,97.90
2023-03-21T16:56:56.074Z,99.70
2023-03-21T16:59:25.486Z,102.20
2023-03-21T17:01:54.135Z,123.10
2023-03-21T17:04:24.947Z,124.70
2023-03-21T17:06:55.762Z,122.80
2023-03-21T17:09:29.644Z,113.90
2023-03-21T17:11:58.686Z,114.50
2023-03-21T17:14:27.488Z,111.10
2023-03-21T17:16:56.241Z,99.00
2023-03-21T17:19:26.622Z,95.10
2023-03-21T17:21:55.812Z,83.60
2023-03-21T17:24:26.944Z,86.60
2023-03-21T17:26:56.472Z,83.40
2023-03-21T17:29:25.070Z,80.40
2023-03-21T17:31:54.480Z,82.40
2023-03-21T17:34:23.603Z,80.70
2023-03-21T17:36:52.165Z,85.00
2023-03-21T17:39:24.293Z,95.10
2023-03-21T17:41:54.044Z,95.60
2023-03-21T17:44:22.899Z,93.50
2023-03-21T17:46:52.163Z,120.30
2023-03-21T17:49:21.537Z,106.50
2023-03-21T17:51:50.706Z,111.90
2023-03-21T17:54:19.575Z,114.40
2023-03-21T17:56:51.125Z,113.40
2023-03-21T17:59:20.042Z,102.30
2023-03-21T18:01:49.351Z,103.40
2023-03-21T18:04:40.138Z,86.60
2023-03-21T18:08:05.922Z,112.50
2023-03-21T18:13:32.262Z,97.90
2023-03-21T18:16:28.542Z,94.40
2023-03-21T18:19:20.731Z,93.50
2023-03-21T18:22:11.770Z,87.40
2023-03-21T18:24:57.769Z,88.30
2023-03-21T18:28:09.522Z,87.60
2023-03-21T18:31:11.464Z,89.60
2023-03-21T18:34:08.531Z,91.50
2023-03-21T18:36:57.857Z,74.00
2023-03-21T18:39:38.846Z,69.50
2023-03-21T18:42:07.825Z,71.90
2023-03-21T18:44:46.077Z,73.70
2023-03-21T18:47:15.141Z,66.70
2023-03-21T18:52:33.402Z,60.50
2023-03-21T18:55:15.785Z,80.40
2023-03-21T18:58:07.220Z,68.70
2023-03-21T19:00:59.164Z,68.30
2023-03-21T19:04:21.477Z,72.20
2023-03-21T19:07:15.519Z,66.00
2023-03-21T19:10:17.592Z,76.80
2023-03-21T19:13:08.813Z,82.80
2023-03-21T19:15:58.753Z,88.80
2023-03-21T19:18:56.667Z,81.30
2023-03-21T19:21:57.457Z,78.40
2023-03-21T19:24:47.201Z,72.80
2023-03-21T19:27:36.512Z,70.30
2023-03-21T19:30:29.615Z,63.70
2023-03-21T19:36:12.931Z,71.60
2023-03-21T19:38:47.437Z,64.20
2023-03-21T19:41:17.901Z,65.20
2023-03-21T19:43:54.530Z,60.20
2023-03-21T19:46:27.863Z,57.50
2023-03-21T19:48:57.313Z,58.10
2023-03-21T19:51:29.897Z,59.80
2023-03-21T19:54:00.830Z,59.40
2023-03-21T19:56:31.405Z,99.30
2023-03-21T19:59:03.720Z,84.00
2023-03-21T20:01:33.169Z,70.10
2023-03-21T20:04:03.086Z,68.10
2023-03-21T20:06:32.010Z,70.90
2023-03-21T20:11:50.872Z,45.00
2023-03-21T20:14:20.712Z,71.60
2023-03-21T20:16:49.393Z,73.20
2023-03-21T20:19:20.640Z,75.80
2023-03-21T20:21:56.853Z,66.20
2023-03-21T20:24:28.754Z,68.10
2023-03-21T20:26:57.990Z,76.20
2023-03-21T20:32:16.449Z,67.40
2023-03-21T20:34:46.170Z,74.90
2023-03-21T20:37:14.935Z,70.10
2023-03-21T20:39:44.429Z,67.40
2023-03-21T20:42:13.013Z,51.00
2023-03-21T20:44:57.375Z,65.80
2023-03-21T20:47:28.289Z,56.50
2023-03-21T20:49:57.147Z,57.00
2023-03-21T20:52:57.462Z,57.60
2023-03-21T20:55:19.136Z,63.20
2023-03-21T20:57:48.867Z,66.30
2023-03-21T21:00:18.358Z,61.20
2023-03-21T21:02:48.986Z,59.30
2023-03-21T21:05:35.722Z,61.80
2023-03-21T21:08:05.219Z,54.70
2023-03-21T21:10:35.034Z,56.90
2023-03-21T21:13:08.030Z,60.70
2023-03-21T21:15:37.811Z,57.00
2023-03-21T21:18:07.637Z,60.30
2023-03-21T21:20:37.347Z,60.70
2023-03-21T21:23:07.062Z,58.10
2023-03-21T21:25:36.073Z,58.90
2023-03-21T21:28:09.870Z,52.00
2023-03-21T21:30:41.725Z,58.00
2023-03-21T21:33:11.239Z,77.80
2023-03-21T21:35:47.189Z,124.80
2023-03-21T21:38:20.403Z,176.20
2023-03-21T21:40:51.782Z,258.80
2023-03-21T21:43:21.379Z,153.10
2023-03-21T21:45:50.358Z,108.10
2023-03-21T21:48:19.159Z,82.70
2023-03-21T21:50:55.273Z,76.20
2023-03-21T21:53:23.691Z,83.40
2023-03-21T21:55:54.303Z,80.80
2023-03-21T21:58:23.052Z,74.50
2023-03-21T22:00:51.663Z,71.80
2023-03-21T22:03:22.544Z,69.80
2023-03-21T22:05:53.547Z,68.70
2023-03-21T22:08:23.427Z,65.40
2023-03-21T22:10:52.144Z,102.00
2023-03-21T22:13:21.128Z,140.50
2023-03-21T22:15:50.261Z,196.30
2023-03-21T22:18:19.095Z,162.40
2023-03-21T22:20:47.888Z,140.10
2023-03-21T22:23:17.138Z,123.70
2023-03-21T22:25:51.536Z,101.00
2023-03-21T22:28:22.366Z,93.10
2023-03-21T22:30:50.902Z,73.60
2023-03-21T22:33:22.675Z,82.10
2023-03-21T22:35:52.884Z,80.80
2023-03-21T22:38:24.711Z,75.20
2023-03-21T22:41:00.823Z,77.80
2023-03-21T22:43:30.529Z,73.20
2023-03-21T22:45:59.460Z,65.50
2023-03-21T22:48:31.459Z,68.60
2023-03-21T22:51:01.117Z,83.60
2023-03-21T22:53:30.449Z,90.00
2023-03-21T22:55:59.231Z,77.00
2023-03-21T22:58:28.085Z,70.90
2023-03-21T23:01:02.257Z,74.00
2023-03-21T23:03:31.421Z,70.20
2023-03-21T23:06:04.514Z,64.40
2023-03-21T23:08:33.790Z,66.70
2023-03-21T23:11:08.271Z,63.10
2023-03-21T23:13:37.197Z,57.50
2023-03-21T23:16:07.723Z,68.20
2023-03-21T23:18:37.502Z,96.70
2023-03-21T23:21:13.505Z,105.20
2023-03-21T23:23:44.397Z,95.70
2023-03-21T23:26:13.299Z,112.60
2023-03-21T23:28:42.436Z,73.40
2023-03-21T23:31:14.933Z,64.70
2023-03-21T23:33:44.741Z,66.60
2023-03-21T23:38:44.095Z,53.70
2023-03-21T23:41:16.203Z,60.30
2023-03-21T23:43:47.242Z,58.60
2023-03-21T23:46:17.742Z,60.40
2023-03-21T23:48:47.113Z,58.30
2023-03-21T23:51:18.197Z,65.40
2023-03-21T23:53:47.290Z,56.20
2023-03-21T23:56:19.455Z,58.60
2023-03-21T23:58:50.229Z,60.90
